createdAt,value
2019-03-31T00:00:42.400Z,91.00
2019-03-31T00:03:24.470Z,90.90
2019-03-31T00:06:06.150Z,90.90
2019-03-31T00:08:48.075Z,90.80
2019-03-31T00:11:29.785Z,91.20
2019-03-31T00:14:12.336Z,90.90
2019-03-31T00:16:54.673Z,90.80
2019-03-31T00:19:36.451Z,90.80
2019-03-31T00:22:18.678Z,91.00
2019-03-31T00:25:00.442Z,90.90
2019-03-31T00:27:42.896Z,91.00
2019-03-31T00:30:25.751Z,91.40
2019-03-31T00:33:07.809Z,91.30
2019-03-31T00:35:50.336Z,91.20
2019-03-31T00:38:32.138Z,91.10
2019-03-31T00:41:13.908Z,91.20
2019-03-31T00:43:56.313Z,91.40
2019-03-31T00:46:38.799Z,91.60
2019-03-31T00:49:26.489Z,91.70
2019-03-31T00:52:29.191Z,91.90
2019-03-31T00:55:11.602Z,91.70
2019-03-31T00:57:53.683Z,91.70
2019-03-31T01:00:55.070Z,91.70
2019-03-31T01:03:37.871Z,91.50
2019-03-31T01:06:21.157Z,91.20
2019-03-31T01:09:05.013Z,91.20
2019-03-31T01:11:47.526Z,91.10
2019-03-31T01:14:29.699Z,91.20
2019-03-31T01:17:12.542Z,91.30
2019-03-31T01:19:56.638Z,91.40
2019-03-31T01:22:38.406Z,91.40
2019-03-31T01:25:20.828Z,91.30
2019-03-31T01:28:02.788Z,91.20
2019-03-31T01:30:45.270Z,91.30
2019-03-31T01:33:27.496Z,91.20
2019-03-31T01:36:10.225Z,91.20
2019-03-31T01:38:52.776Z,91.10
2019-03-31T01:41:34.774Z,91.30
2019-03-31T01:44:17.262Z,91.30
2019-03-31T01:46:59.141Z,91.40
2019-03-31T01:49:41.323Z,91.40
2019-03-31T01:52:23.535Z,91.30
2019-03-31T01:55:05.731Z,91.30
2019-03-31T01:57:47.558Z,91.40
2019-03-31T02:03:32.708Z,91.50
2019-03-31T02:06:14.518Z,91.50
2019-03-31T02:08:56.498Z,91.60
2019-03-31T02:11:38.693Z,91.50
2019-03-31T02:14:20.926Z,91.60
2019-03-31T02:17:03.322Z,91.70
2019-03-31T02:19:45.371Z,91.80
2019-03-31T02:22:27.399Z,91.70
2019-03-31T02:25:13.057Z,91.90
2019-03-31T02:27:55.741Z,91.90
2019-03-31T02:30:37.988Z,91.90
2019-03-31T02:33:20.353Z,91.90
2019-03-31T02:36:02.239Z,91.80
2019-03-31T02:38:44.590Z,91.60
2019-03-31T02:41:27.101Z,91.60
2019-03-31T02:44:09.038Z,91.90
2019-03-31T02:46:50.987Z,91.80
2019-03-31T02:49:33.029Z,91.70
2019-03-31T02:52:16.299Z,91.70
2019-03-31T02:54:58.251Z,92.00
2019-03-31T02:57:40.284Z,92.00
2019-03-31T03:00:22.828Z,92.20
2019-03-31T03:03:05.188Z,92.10
2019-03-31T03:05:48.176Z,92.10
2019-03-31T03:08:30.770Z,92.10
2019-03-31T03:11:13.108Z,92.20
2019-03-31T03:17:38.310Z,92.40
2019-03-31T03:20:47.594Z,92.40
2019-03-31T03:27:14.412Z,92.60
2019-03-31T03:33:31.433Z,92.60
2019-03-31T03:36:13.489Z,92.60
2019-03-31T03:38:55.375Z,92.40
2019-03-31T03:41:38.045Z,92.30
2019-03-31T03:44:20.448Z,92.50
2019-03-31T03:47:02.522Z,92.60
2019-03-31T03:49:44.774Z,92.30
2019-03-31T03:52:27.380Z,92.40
2019-03-31T03:55:09.570Z,92.30
2019-03-31T03:57:52.147Z,92.50
2019-03-31T04:00:33.943Z,92.50
2019-03-31T04:03:30.111Z,92.50
2019-03-31T04:06:00.699Z,92.60
2019-03-31T04:08:43.380Z,92.70
2019-03-31T04:11:25.571Z,92.70
2019-03-31T04:14:07.895Z,92.90
2019-03-31T04:16:49.873Z,92.80
2019-03-31T04:19:31.754Z,92.80
2019-03-31T04:22:14.069Z,92.70
2019-03-31T04:24:56.365Z,92.90
2019-03-31T04:27:38.362Z,92.90
2019-03-31T04:30:20.773Z,93.00
2019-03-31T04:33:02.610Z,93.20
2019-03-31T04:35:44.542Z,93.10
2019-03-31T04:38:26.582Z,93.00
2019-03-31T04:41:08.708Z,93.10
2019-03-31T04:43:50.823Z,93.10
2019-03-31T04:46:32.956Z,93.00
2019-03-31T04:49:14.923Z,93.00
2019-03-31T04:51:57.569Z,92.80
2019-03-31T04:54:39.807Z,92.90
2019-03-31T04:57:21.571Z,92.90
2019-03-31T05:00:03.600Z,93.00
2019-03-31T05:02:46.017Z,93.00
2019-03-31T05:05:28.092Z,92.90
2019-03-31T05:08:10.198Z,92.90
2019-03-31T05:10:52.535Z,93.10
2019-03-31T05:13:34.290Z,93.20
2019-03-31T05:16:17.706Z,93.10
2019-03-31T05:18:59.464Z,93.20
2019-03-31T05:21:41.530Z,93.20
2019-03-31T05:24:23.807Z,93.20
2019-03-31T05:27:05.515Z,93.20
2019-03-31T05:29:47.451Z,93.00
2019-03-31T05:32:29.789Z,93.00
2019-03-31T05:35:11.577Z,93.00
2019-03-31T05:37:53.475Z,93.20
2019-03-31T05:40:36.049Z,93.20
2019-03-31T05:43:18.091Z,93.10
2019-03-31T05:46:00.507Z,93.10
2019-03-31T05:48:42.554Z,93.10
2019-03-31T05:51:24.645Z,93.40
2019-03-31T05:54:06.554Z,93.40
2019-03-31T05:56:48.483Z,93.50
2019-03-31T05:59:30.431Z,93.60
2019-03-31T06:02:12.816Z,93.70
2019-03-31T06:04:54.662Z,93.80
2019-03-31T06:07:37.137Z,94.00
2019-03-31T06:10:18.791Z,94.20
2019-03-31T06:13:00.746Z,94.30
2019-03-31T06:15:42.875Z,94.40
2019-03-31T06:18:25.313Z,94.50
2019-03-31T06:21:07.178Z,94.60
2019-03-31T06:23:49.342Z,94.80
2019-03-31T06:26:31.266Z,94.90
2019-03-31T06:29:13.602Z,94.90
2019-03-31T06:31:55.847Z,95.00
2019-03-31T06:34:47.379Z,95.00
2019-03-31T06:37:21.496Z,95.10
2019-03-31T06:40:03.797Z,95.10
2019-03-31T06:42:45.763Z,95.20
2019-03-31T06:45:27.742Z,95.30
2019-03-31T06:48:10.129Z,95.30
2019-03-31T06:50:52.141Z,95.30
2019-03-31T06:53:34.482Z,95.30
2019-03-31T06:56:16.135Z,95.40
2019-03-31T06:58:58.653Z,95.40
2019-03-31T07:01:40.526Z,95.60
2019-03-31T07:04:22.904Z,95.70
2019-03-31T07:07:04.913Z,95.70
2019-03-31T07:09:46.901Z,95.70
2019-03-31T07:12:29.263Z,95.80
2019-03-31T07:15:11.514Z,95.90
2019-03-31T07:17:53.514Z,95.90
2019-03-31T07:20:35.178Z,96.00
2019-03-31T07:23:17.190Z,96.10
2019-03-31T07:25:59.541Z,96.30
2019-03-31T07:28:41.456Z,96.20
2019-03-31T07:31:27.586Z,96.20
2019-03-31T07:34:09.388Z,96.10
2019-03-31T07:36:51.513Z,96.20
2019-03-31T07:39:33.837Z,96.20
2019-03-31T07:42:15.865Z,96.20
2019-03-31T07:44:57.610Z,96.30
2019-03-31T07:47:40.559Z,96.10
2019-03-31T07:50:22.718Z,96.20
2019-03-31T07:53:04.586Z,96.10
2019-03-31T07:55:46.578Z,96.10
2019-03-31T07:58:28.466Z,96.30
2019-03-31T08:07:26.549Z,96.40
2019-03-31T08:10:35.855Z,96.40
2019-03-31T08:17:00.294Z,96.80
2019-03-31T08:23:05.158Z,96.90
2019-03-31T08:26:14.477Z,96.90
2019-03-31T08:29:23.759Z,96.90
2019-03-31T08:32:33.063Z,96.90
2019-03-31T08:45:21.927Z,97.00
2019-03-31T08:51:40.263Z,97.00
2019-03-31T08:54:22.834Z,97.00
2019-03-31T08:57:04.670Z,97.20
2019-03-31T08:59:46.784Z,97.30
2019-03-31T09:05:42.943Z,97.50
2019-03-31T09:08:24.867Z,97.90
2019-03-31T09:11:07.051Z,98.10
2019-03-31T09:13:48.960Z,97.80
2019-03-31T09:16:31.439Z,97.80
2019-03-31T09:19:13.816Z,98.40
2019-03-31T09:21:55.836Z,97.90
2019-03-31T09:24:37.855Z,98.00
2019-03-31T09:27:20.100Z,97.90
2019-03-31T09:30:02.240Z,97.90
2019-03-31T09:32:44.835Z,98.20
2019-03-31T09:35:27.273Z,98.30
2019-03-31T09:38:09.914Z,98.40
2019-03-31T09:40:52.431Z,98.20
2019-03-31T09:43:34.245Z,98.30
2019-03-31T09:46:16.381Z,98.20
2019-03-31T09:48:58.514Z,98.20
2019-03-31T09:51:40.743Z,98.20
2019-03-31T09:54:23.270Z,98.50
2019-03-31T09:57:05.662Z,98.10
2019-03-31T09:59:47.490Z,98.40
2019-03-31T10:02:29.417Z,98.30
2019-03-31T10:05:11.562Z,97.70
2019-03-31T10:07:53.566Z,97.90
2019-03-31T10:10:35.793Z,97.50
2019-03-31T10:13:17.942Z,97.30
2019-03-31T10:15:59.709Z,97.20
2019-03-31T10:18:41.814Z,96.60
2019-03-31T10:21:23.845Z,96.70
2019-03-31T10:24:05.732Z,96.30
2019-03-31T10:26:48.048Z,96.70
2019-03-31T10:29:29.891Z,96.50
2019-03-31T10:32:12.206Z,96.30
2019-03-31T10:34:54.389Z,96.30
2019-03-31T10:37:36.796Z,96.30
2019-03-31T10:40:19.438Z,96.20
2019-03-31T10:43:01.718Z,95.50
2019-03-31T10:45:43.815Z,94.90
2019-03-31T10:48:26.232Z,94.00
2019-03-31T10:51:08.652Z,93.30
2019-03-31T10:53:51.285Z,93.20
2019-03-31T10:56:33.283Z,93.30
2019-03-31T10:59:15.130Z,94.40
2019-03-31T11:01:58.028Z,94.20
2019-03-31T11:04:40.309Z,93.10
2019-03-31T11:07:22.911Z,94.80
2019-03-31T11:10:05.213Z,93.10
2019-03-31T11:12:46.139Z,95.30
2019-03-31T11:22:41.228Z,95.00
2019-03-31T11:29:00.993Z,93.50
2019-03-31T11:31:50.912Z,94.70
2019-03-31T11:35:38.719Z,95.10
2019-03-31T11:41:50.213Z,94.90
2019-03-31T11:51:47.502Z,94.20
2019-03-31T11:54:56.779Z,93.10
2019-03-31T11:58:25.077Z,94.60
2019-03-31T12:01:19.023Z,95.10
2019-03-31T12:03:50.399Z,94.20
2019-03-31T12:06:27.253Z,94.80
2019-03-31T12:09:17.450Z,93.70
2019-03-31T12:19:37.521Z,91.90
2019-03-31T12:25:55.732Z,94.10
2019-03-31T12:29:24.549Z,93.40
2019-03-31T12:32:33.962Z,92.10
2019-03-31T12:38:54.065Z,92.60
2019-03-31T12:41:35.823Z,92.90
2019-03-31T12:44:17.993Z,93.80
2019-03-31T12:46:59.901Z,94.40
2019-03-31T12:49:41.911Z,93.50
2019-03-31T12:52:23.844Z,93.00
2019-03-31T12:55:05.807Z,92.50
2019-03-31T12:57:51.700Z,94.30
2019-03-31T13:00:32.451Z,95.00
2019-03-31T13:03:16.336Z,94.30
2019-03-31T13:05:58.747Z,95.00
2019-03-31T13:08:44.137Z,94.60
2019-03-31T13:11:28.696Z,95.80
2019-03-31T13:14:10.665Z,95.30
2019-03-31T13:16:52.660Z,95.00
2019-03-31T13:19:34.351Z,95.30
2019-03-31T13:22:16.451Z,95.20
2019-03-31T13:25:02.176Z,95.70
2019-03-31T13:27:42.404Z,95.30
2019-03-31T13:30:24.919Z,94.60
2019-03-31T13:33:06.945Z,94.60
2019-03-31T13:35:49.190Z,94.60
2019-03-31T13:38:31.272Z,94.30
2019-03-31T13:41:13.290Z,93.30
2019-03-31T13:43:55.073Z,93.20
2019-03-31T13:46:36.890Z,94.60
2019-03-31T13:49:19.309Z,94.30
2019-03-31T13:52:01.966Z,93.40
2019-03-31T13:54:43.613Z,92.70
2019-03-31T13:57:26.255Z,92.60
2019-03-31T14:00:08.308Z,93.30
2019-03-31T14:02:50.408Z,93.30
2019-03-31T14:05:32.984Z,93.30
2019-03-31T14:08:25.593Z,94.80
2019-03-31T14:10:59.453Z,93.80
2019-03-31T14:13:42.061Z,94.10
2019-03-31T14:16:24.012Z,96.10
2019-03-31T14:19:05.890Z,96.50
2019-03-31T14:21:47.808Z,96.00
2019-03-31T14:24:29.914Z,95.70
2019-03-31T14:27:12.080Z,93.90
2019-03-31T14:29:54.182Z,95.30
2019-03-31T14:32:37.023Z,94.20
2019-03-31T14:35:19.440Z,94.20
2019-03-31T14:38:01.311Z,92.90
2019-03-31T14:40:43.663Z,93.80
2019-03-31T14:43:28.025Z,95.50
2019-03-31T14:46:09.953Z,94.90
2019-03-31T14:48:51.735Z,93.20
2019-03-31T14:51:33.899Z,93.90
2019-03-31T14:54:16.051Z,93.70
2019-03-31T14:56:58.204Z,94.40
2019-03-31T14:59:40.213Z,94.40
2019-03-31T15:02:22.234Z,92.50
2019-03-31T15:05:04.307Z,91.70
2019-03-31T15:07:46.188Z,93.10
2019-03-31T15:10:28.441Z,92.70
2019-03-31T15:13:10.675Z,94.00
2019-03-31T15:15:52.734Z,92.50
2019-03-31T15:18:34.419Z,92.70
2019-03-31T15:21:16.826Z,93.30
2019-03-31T15:24:00.335Z,93.70
2019-03-31T15:26:42.827Z,93.60
2019-03-31T15:29:25.364Z,93.40
2019-03-31T15:32:07.580Z,92.40
2019-03-31T15:34:49.616Z,92.30
2019-03-31T15:37:31.808Z,92.40
2019-03-31T15:40:13.710Z,92.30
2019-03-31T15:42:55.527Z,91.80
2019-03-31T15:45:37.399Z,92.10
2019-03-31T15:48:19.846Z,92.70
2019-03-31T15:51:01.945Z,92.50
2019-03-31T15:53:43.951Z,93.00
2019-03-31T15:56:26.094Z,93.10
2019-03-31T15:59:09.275Z,92.10
2019-03-31T16:01:51.942Z,92.90
2019-03-31T16:04:33.713Z,92.20
2019-03-31T16:07:15.753Z,92.40
2019-03-31T16:09:57.850Z,91.80
2019-03-31T16:12:39.457Z,92.70
2019-03-31T16:15:56.163Z,92.30
2019-03-31T16:18:37.307Z,91.00
2019-03-31T16:21:19.692Z,91.20
2019-03-31T16:24:01.631Z,91.20
2019-03-31T16:26:43.461Z,91.30
2019-03-31T16:29:26.031Z,92.70
2019-03-31T16:32:08.084Z,93.60
2019-03-31T16:34:50.106Z,93.80
2019-03-31T16:37:32.083Z,94.20
2019-03-31T16:40:14.163Z,93.10
2019-03-31T16:42:56.422Z,93.50
2019-03-31T16:45:38.097Z,93.70
2019-03-31T16:48:20.298Z,92.00
2019-03-31T16:51:02.211Z,91.80
2019-03-31T16:53:44.488Z,91.20
2019-03-31T16:56:26.751Z,91.20
2019-03-31T16:59:08.649Z,91.00
2019-03-31T17:01:51.291Z,90.90
2019-03-31T17:04:33.264Z,90.80
2019-03-31T17:07:15.494Z,92.10
2019-03-31T17:09:57.658Z,91.50
2019-03-31T17:12:39.970Z,91.60
2019-03-31T17:15:21.678Z,92.10
2019-03-31T17:18:03.943Z,91.50
2019-03-31T17:20:46.524Z,90.80
2019-03-31T17:23:29.408Z,90.70
2019-03-31T17:26:12.012Z,91.20
2019-03-31T17:28:54.459Z,90.70
2019-03-31T17:31:36.465Z,91.50
2019-03-31T17:34:19.031Z,92.30
2019-03-31T17:37:01.264Z,91.60
2019-03-31T17:39:43.633Z,92.00
2019-03-31T17:42:25.512Z,93.20
2019-03-31T17:45:08.052Z,93.60
2019-03-31T17:47:49.902Z,93.40
2019-03-31T17:50:32.146Z,93.00
2019-03-31T17:53:14.331Z,93.90
2019-03-31T17:55:56.808Z,93.40
2019-03-31T17:58:39.620Z,94.10
2019-03-31T18:01:22.187Z,93.40
2019-03-31T18:04:04.610Z,92.80
2019-03-31T18:06:46.807Z,92.80
2019-03-31T18:09:29.360Z,91.50
2019-03-31T18:12:11.429Z,92.50
2019-03-31T18:14:53.642Z,92.80
2019-03-31T18:17:37.793Z,92.80
2019-03-31T18:20:19.783Z,91.80
2019-03-31T18:23:01.778Z,91.30
2019-03-31T18:25:44.189Z,91.20
2019-03-31T18:28:26.358Z,91.40
2019-03-31T18:31:08.620Z,91.50
2019-03-31T18:33:51.899Z,91.00
2019-03-31T18:36:36.749Z,90.60
2019-03-31T18:39:18.130Z,90.30
2019-03-31T18:42:00.595Z,90.60
2019-03-31T18:44:42.580Z,90.30
2019-03-31T18:47:25.026Z,90.10
2019-03-31T18:50:06.922Z,90.20
2019-03-31T18:52:49.446Z,90.70
2019-03-31T18:59:24.163Z,89.70
2019-03-31T19:02:31.773Z,87.80
2019-03-31T19:09:02.272Z,86.90
2019-03-31T19:12:09.783Z,86.40
2019-03-31T19:15:10.661Z,86.70
2019-03-31T19:18:12.125Z,86.50
2019-03-31T19:25:12.491Z,87.00
2019-03-31T19:28:29.446Z,88.20
2019-03-31T19:31:50.018Z,89.30
2019-03-31T19:34:54.095Z,89.70
2019-03-31T19:38:21.157Z,90.00
2019-03-31T19:41:36.503Z,90.00
2019-03-31T19:45:04.375Z,89.80
2019-03-31T19:48:12.802Z,90.40
2019-03-31T19:51:21.246Z,90.50
2019-03-31T19:57:35.142Z,90.60
2019-03-31T20:00:43.702Z,90.90
2019-03-31T20:03:52.154Z,90.50
2019-03-31T20:10:17.056Z,90.30
2019-03-31T20:13:25.472Z,90.10
2019-03-31T20:19:55.365Z,89.60
2019-03-31T20:23:03.870Z,89.50
2019-03-31T20:29:35.829Z,90.00
2019-03-31T20:32:44.307Z,88.90
2019-03-31T20:36:12.200Z,88.70
2019-03-31T20:39:20.626Z,88.40
2019-03-31T20:42:19.805Z,88.70
2019-03-31T20:45:21.083Z,88.80
2019-03-31T20:48:03.064Z,89.20
2019-03-31T20:50:45.230Z,89.30
2019-03-31T20:53:27.250Z,89.20
2019-03-31T20:56:09.278Z,89.30
2019-03-31T20:58:51.182Z,89.50
2019-03-31T21:01:32.868Z,90.20
2019-03-31T21:04:15.097Z,90.10
2019-03-31T21:06:57.255Z,90.20
2019-03-31T21:09:45.142Z,90.50
2019-03-31T21:12:24.076Z,90.60
2019-03-31T21:15:06.019Z,90.60
2019-03-31T21:17:48.638Z,90.50
2019-03-31T21:20:31.104Z,90.50
2019-03-31T21:23:13.299Z,90.70
2019-03-31T21:25:55.413Z,90.80
2019-03-31T21:28:37.223Z,90.90
2019-03-31T21:31:19.396Z,91.00
2019-03-31T21:34:01.746Z,91.00
2019-03-31T21:36:43.587Z,91.00
2019-03-31T21:39:25.503Z,91.10
2019-03-31T21:42:07.582Z,91.20
2019-03-31T21:44:49.775Z,91.20
2019-03-31T21:47:31.641Z,91.30
2019-03-31T21:50:13.720Z,91.30
2019-03-31T21:52:55.994Z,91.40
2019-03-31T21:55:38.019Z,91.60
2019-03-31T21:58:20.076Z,91.60
2019-03-31T22:01:02.711Z,91.70
2019-03-31T22:03:44.563Z,91.80
2019-03-31T22:06:26.640Z,91.80
2019-03-31T22:09:10.803Z,92.00
2019-03-31T22:11:53.294Z,92.00
2019-03-31T22:14:35.518Z,92.00
2019-03-31T22:17:17.448Z,91.90
2019-03-31T22:19:59.432Z,92.10
2019-03-31T22:22:41.553Z,92.10
2019-03-31T22:25:23.542Z,92.20
2019-03-31T22:28:05.665Z,92.20
2019-03-31T22:30:47.702Z,92.30
2019-03-31T22:33:29.841Z,92.50
2019-03-31T22:36:30.958Z,92.70
2019-03-31T22:39:13.174Z,92.70
2019-03-31T22:41:55.347Z,93.00
2019-03-31T22:44:37.355Z,93.40
2019-03-31T22:47:19.847Z,93.50
2019-03-31T22:50:02.311Z,93.60
2019-03-31T22:52:44.405Z,93.70
2019-03-31T22:55:26.441Z,94.20
2019-03-31T22:58:09.002Z,94.20
2019-03-31T23:00:51.094Z,94.40
2019-03-31T23:03:32.858Z,94.60
2019-03-31T23:06:16.263Z,94.50
2019-03-31T23:08:58.001Z,94.60
2019-03-31T23:11:41.130Z,94.70
2019-03-31T23:14:22.962Z,94.80
2019-03-31T23:17:05.116Z,94.90
2019-03-31T23:19:47.082Z,95.00
2019-03-31T23:22:29.275Z,95.00
2019-03-31T23:25:11.216Z,95.00
2019-03-31T23:27:53.154Z,95.10
2019-03-31T23:30:35.128Z,95.20
2019-03-31T23:33:17.049Z,95.30
2019-03-31T23:35:59.072Z,95.40
2019-03-31T23:38:41.115Z,95.60
2019-03-31T23:41:23.419Z,95.70
2019-03-31T23:44:05.926Z,96.00
2019-03-31T23:46:47.859Z,96.10
2019-03-31T23:49:29.871Z,96.20
2019-03-31T23:52:11.671Z,96.30
2019-03-31T23:54:53.938Z,96.30
2019-03-31T23:57:42.484Z,96.40
